sensor_id;sensor_type;location;lat;lon;timestamp;temperature;humidity
65985;HTU21D;52748;51.112;5.880;2023-05-02T00:02:17;18.69;61.86
65985;HTU21D;52748;51.112;5.880;2023-05-02T00:04:43;18.68;61.82
65985;HTU21D;52748;51.112;5.880;2023-05-02T00:07:09;18.70;61.76
65985;HTU21D;52748;51.112;5.880;2023-05-02T00:09:35;18.67;61.95
65985;HTU21D;52748;51.112;5.880;2023-05-02T00:12:01;18.66;62.12
65985;HTU21D;52748;51.112;5.880;2023-05-02T00:14:28;18.63;62.19
65985;HTU21D;52748;51.112;5.880;2023-05-02T00:16:53;18.63;62.28
65985;HTU21D;52748;51.112;5.880;2023-05-02T00:19:19;18.61;62.35
65985;HTU21D;52748;51.112;5.880;2023-05-02T00:21:48;18.62;62.37
65985;HTU21D;52748;51.112;5.880;2023-05-02T00:24:16;18.59;62.39
65985;HTU21D;52748;51.112;5.880;2023-05-02T00:26:41;18.59;62.43
65985;HTU21D;52748;51.112;5.880;2023-05-02T00:29:07;18.58;62.44
65985;HTU21D;52748;51.112;5.880;2023-05-02T00:31:33;18.58;62.47
65985;HTU21D;52748;51.112;5.880;2023-05-02T00:34:00;18.62;62.33
65985;HTU21D;52748;51.112;5.880;2023-05-02T00:36:26;18.61;62.38
65985;HTU21D;52748;51.112;5.880;2023-05-02T00:38:52;18.59;62.43
65985;HTU21D;52748;51.112;5.880;2023-05-02T00:41:18;18.59;62.41
65985;HTU21D;52748;51.112;5.880;2023-05-02T00:43:43;18.64;62.20
65985;HTU21D;52748;51.112;5.880;2023-05-02T00:46:10;18.66;62.01
65985;HTU21D;52748;51.112;5.880;2023-05-02T00:48:38;18.67;61.89
65985;HTU21D;52748;51.112;5.880;2023-05-02T00:51:04;18.64;62.05
65985;HTU21D;52748;51.112;5.880;2023-05-02T00:53:31;18.62;62.19
65985;HTU21D;52748;51.112;5.880;2023-05-02T00:55:57;18.61;62.28
65985;HTU21D;52748;51.112;5.880;2023-05-02T00:58:25;18.63;62.24
65985;HTU21D;52748;51.112;5.880;2023-05-02T01:06:47;18.64;62.20
65985;HTU21D;52748;51.112;5.880;2023-05-02T01:12:05;18.65;61.92
65985;HTU21D;52748;51.112;5.880;2023-05-02T01:14:40;18.65;61.93
65985;HTU21D;52748;51.112;5.880;2023-05-02T01:17:11;18.62;62.12
65985;HTU21D;52748;51.112;5.880;2023-05-02T01:19:42;18.61;62.22
65985;HTU21D;52748;51.112;5.880;2023-05-02T01:22:11;18.58;62.31
65985;HTU21D;52748;51.112;5.880;2023-05-02T01:27:39;18.57;62.32
65985;HTU21D;52748;51.112;5.880;2023-05-02T01:30:10;18.57;62.34
65985;HTU21D;52748;51.112;5.880;2023-05-02T01:32:39;18.62;62.25
65985;HTU21D;52748;51.112;5.880;2023-05-02T01:35:08;18.62;62.08
65985;HTU21D;52748;51.112;5.880;2023-05-02T01:37:37;18.58;62.19
65985;HTU21D;52748;51.112;5.880;2023-05-02T01:40:06;18.58;62.29
65985;HTU21D;52748;51.112;5.880;2023-05-02T01:42:35;18.61;62.27
65985;HTU21D;52748;51.112;5.880;2023-05-02T01:45:03;18.63;62.11
65985;HTU21D;52748;51.112;5.880;2023-05-02T01:47:33;18.63;62.01
65985;HTU21D;52748;51.112;5.880;2023-05-02T01:50:02;18.61;62.15
65985;HTU21D;52748;51.112;5.880;2023-05-02T01:52:30;18.58;62.27
65985;HTU21D;52748;51.112;5.880;2023-05-02T01:54:59;18.57;62.34
65985;HTU21D;52748;51.112;5.880;2023-05-02T01:57:26;18.56;62.38
65985;HTU21D;52748;51.112;5.880;2023-05-02T01:59:55;18.56;62.44
65985;HTU21D;52748;51.112;5.880;2023-05-02T02:02:25;18.56;62.46
65985;HTU21D;52748;51.112;5.880;2023-05-02T02:04:56;18.55;62.51
65985;HTU21D;52748;51.112;5.880;2023-05-02T02:07:23;18.55;62.51
65985;HTU21D;52748;51.112;5.880;2023-05-02T02:09:50;18.56;62.46
65985;HTU21D;52748;51.112;5.880;2023-05-02T02:12:27;18.56;62.37
65985;HTU21D;52748;51.112;5.880;2023-05-02T02:15:20;18.56;62.44
65985;HTU21D;52748;51.112;5.880;2023-05-02T02:18:00;18.53;62.48
65985;HTU21D;52748;51.112;5.880;2023-05-02T02:20:28;18.54;62.52
65985;HTU21D;52748;51.112;5.880;2023-05-02T02:22:57;18.54;62.50
65985;HTU21D;52748;51.112;5.880;2023-05-02T02:25:24;18.56;62.36
65985;HTU21D;52748;51.112;5.880;2023-05-02T02:27:52;18.54;62.40
65985;HTU21D;52748;51.112;5.880;2023-05-02T02:30:18;18.55;62.47
65985;HTU21D;52748;51.112;5.880;2023-05-02T02:32:43;18.54;62.47
65985;HTU21D;52748;51.112;5.880;2023-05-02T02:35:10;18.57;62.41
65985;HTU21D;52748;51.112;5.880;2023-05-02T02:38:03;18.59;62.18
65985;HTU21D;52748;51.112;5.880;2023-05-02T02:40:41;18.56;62.24
65985;HTU21D;52748;51.112;5.880;2023-05-02T02:43:30;18.59;62.21
65985;HTU21D;52748;51.112;5.880;2023-05-02T02:46:33;18.58;62.22
65985;HTU21D;52748;51.112;5.880;2023-05-02T02:51:31;18.62;61.97
65985;HTU21D;52748;51.112;5.880;2023-05-02T02:54:15;18.62;61.93
65985;HTU21D;52748;51.112;5.880;2023-05-02T02:56:48;18.59;62.03
65985;HTU21D;52748;51.112;5.880;2023-05-02T03:02:08;18.61;62.14
65985;HTU21D;52748;51.112;5.880;2023-05-02T03:04:37;18.58;62.19
65985;HTU21D;52748;51.112;5.880;2023-05-02T03:07:04;18.56;62.31
65985;HTU21D;52748;51.112;5.880;2023-05-02T03:09:56;18.54;62.41
65985;HTU21D;52748;51.112;5.880;2023-05-02T03:12:23;18.55;62.45
65985;HTU21D;52748;51.112;5.880;2023-05-02T03:14:49;18.57;62.19
65985;HTU21D;52748;51.112;5.880;2023-05-02T03:17:16;18.54;62.33
65985;HTU21D;52748;51.112;5.880;2023-05-02T03:19:42;18.58;62.23
65985;HTU21D;52748;51.112;5.880;2023-05-02T03:22:07;18.58;62.11
65985;HTU21D;52748;51.112;5.880;2023-05-02T03:24:35;18.59;62.05
65985;HTU21D;52748;51.112;5.880;2023-05-02T03:27:02;18.59;61.99
65985;HTU21D;52748;51.112;5.880;2023-05-02T03:29:33;18.61;62.01
65985;HTU21D;52748;51.112;5.880;2023-05-02T03:31:59;18.56;62.17
65985;HTU21D;52748;51.112;5.880;2023-05-02T03:34:25;18.55;62.24
65985;HTU21D;52748;51.112;5.880;2023-05-02T03:36:52;18.53;62.34
65985;HTU21D;52748;51.112;5.880;2023-05-02T03:39:19;18.53;62.40
65985;HTU21D;52748;51.112;5.880;2023-05-02T03:41:44;18.52;62.44
65985;HTU21D;52748;51.112;5.880;2023-05-02T03:44:14;18.50;62.47
65985;HTU21D;52748;51.112;5.880;2023-05-02T03:46:40;18.50;62.48
65985;HTU21D;52748;51.112;5.880;2023-05-02T03:49:09;18.54;62.31
65985;HTU21D;52748;51.112;5.880;2023-05-02T03:51:35;18.52;62.34
65985;HTU21D;52748;51.112;5.880;2023-05-02T03:54:01;18.50;62.41
65985;HTU21D;52748;51.112;5.880;2023-05-02T03:56:27;18.51;62.44
65985;HTU21D;52748;51.112;5.880;2023-05-02T03:59:12;18.49;62.47
65985;HTU21D;52748;51.112;5.880;2023-05-02T04:01:38;18.53;62.30
65985;HTU21D;52748;51.112;5.880;2023-05-02T04:04:05;18.54;62.31
65985;HTU21D;52748;51.112;5.880;2023-05-02T04:06:35;18.56;62.14
65985;HTU21D;52748;51.112;5.880;2023-05-02T04:09:05;18.53;62.15
65985;HTU21D;52748;51.112;5.880;2023-05-02T04:11:40;18.52;62.28
65985;HTU21D;52748;51.112;5.880;2023-05-02T04:14:07;18.52;62.34
65985;HTU21D;52748;51.112;5.880;2023-05-02T04:16:34;18.53;62.25
65985;HTU21D;52748;51.112;5.880;2023-05-02T04:19:00;18.54;62.11
65985;HTU21D;52748;51.112;5.880;2023-05-02T04:21:27;18.52;62.21
65985;HTU21D;52748;51.112;5.880;2023-05-02T04:23:53;18.50;62.32
65985;HTU21D;52748;51.112;5.880;2023-05-02T04:26:18;18.51;62.37
65985;HTU21D;52748;51.112;5.880;2023-05-02T04:28:57;18.49;62.41
65985;HTU21D;52748;51.112;5.880;2023-05-02T04:31:23;18.49;62.41
65985;HTU21D;52748;51.112;5.880;2023-05-02T04:33:50;18.48;62.46
65985;HTU21D;52748;51.112;5.880;2023-05-02T04:36:20;18.48;62.47
65985;HTU21D;52748;51.112;5.880;2023-05-02T04:38:46;18.49;62.41
65985;HTU21D;52748;51.112;5.880;2023-05-02T04:41:14;18.52;62.22
65985;HTU21D;52748;51.112;5.880;2023-05-02T04:43:45;18.54;62.08
65985;HTU21D;52748;51.112;5.880;2023-05-02T04:46:12;18.56;61.96
65985;HTU21D;52748;51.112;5.880;2023-05-02T04:48:38;18.57;61.88
65985;HTU21D;52748;51.112;5.880;2023-05-02T04:51:08;18.54;61.92
65985;HTU21D;52748;51.112;5.880;2023-05-02T04:53:35;18.55;62.01
65985;HTU21D;52748;51.112;5.880;2023-05-02T04:56:02;18.52;62.03
65985;HTU21D;52748;51.112;5.880;2023-05-02T04:58:29;18.52;62.20
65985;HTU21D;52748;51.112;5.880;2023-05-02T05:00:59;18.52;62.26
65985;HTU21D;52748;51.112;5.880;2023-05-02T05:03:26;18.51;62.26
65985;HTU21D;52748;51.112;5.880;2023-05-02T05:05:55;18.50;62.25
65985;HTU21D;52748;51.112;5.880;2023-05-02T05:08:23;18.49;62.34
65985;HTU21D;52748;51.112;5.880;2023-05-02T05:10:49;18.47;62.38
65985;HTU21D;52748;51.112;5.880;2023-05-02T05:13:16;18.47;62.44
65985;HTU21D;52748;51.112;5.880;2023-05-02T05:15:46;18.47;62.44
65985;HTU21D;52748;51.112;5.880;2023-05-02T05:18:12;18.44;62.46
65985;HTU21D;52748;51.112;5.880;2023-05-02T05:20:38;18.46;62.50
65985;HTU21D;52748;51.112;5.880;2023-05-02T05:23:04;18.44;62.51
65985;HTU21D;52748;51.112;5.880;2023-05-02T05:25:30;18.43;62.53
65985;HTU21D;52748;51.112;5.880;2023-05-02T05:27:58;18.47;62.42
65985;HTU21D;52748;51.112;5.880;2023-05-02T05:30:25;18.44;62.48
65985;HTU21D;52748;51.112;5.880;2023-05-02T05:32:51;18.50;62.33
65985;HTU21D;52748;51.112;5.880;2023-05-02T05:35:17;18.52;62.15
65985;HTU21D;52748;51.112;5.880;2023-05-02T05:37:43;18.53;62.02
65985;HTU21D;52748;51.112;5.880;2023-05-02T05:40:12;18.51;61.99
65985;HTU21D;52748;51.112;5.880;2023-05-02T05:42:41;18.50;62.17
65985;HTU21D;52748;51.112;5.880;2023-05-02T05:45:13;18.51;62.10
65985;HTU21D;52748;51.112;5.880;2023-05-02T05:47:42;18.54;61.99
65985;HTU21D;52748;51.112;5.880;2023-05-02T05:50:07;18.53;61.92
65985;HTU21D;52748;51.112;5.880;2023-05-02T05:52:33;18.55;61.87
65985;HTU21D;52748;51.112;5.880;2023-05-02T05:55:01;18.56;61.83
65985;HTU21D;52748;51.112;5.880;2023-05-02T05:57:28;18.56;61.82
65985;HTU21D;52748;51.112;5.880;2023-05-02T05:59:55;18.55;61.79
65985;HTU21D;52748;51.112;5.880;2023-05-02T06:02:21;18.53;61.95
65985;HTU21D;52748;51.112;5.880;2023-05-02T06:04:47;18.50;62.13
65985;HTU21D;52748;51.112;5.880;2023-05-02T06:07:15;18.48;62.25
65985;HTU21D;52748;51.112;5.880;2023-05-02T06:09:41;18.52;62.11
65985;HTU21D;52748;51.112;5.880;2023-05-02T06:12:07;18.52;62.01
65985;HTU21D;52748;51.112;5.880;2023-05-02T06:14:34;18.52;61.96
65985;HTU21D;52748;51.112;5.880;2023-05-02T06:17:00;18.49;62.13
65985;HTU21D;52748;51.112;5.880;2023-05-02T06:19:26;18.48;62.26
65985;HTU21D;52748;51.112;5.880;2023-05-02T06:21:52;18.47;62.35
65985;HTU21D;52748;51.112;5.880;2023-05-02T06:24:18;18.46;62.41
65985;HTU21D;52748;51.112;5.880;2023-05-02T06:26:44;18.47;62.39
65985;HTU21D;52748;51.112;5.880;2023-05-02T06:29:10;18.47;62.24
65985;HTU21D;52748;51.112;5.880;2023-05-02T06:31:36;18.46;62.30
65985;HTU21D;52748;51.112;5.880;2023-05-02T06:34:02;18.47;62.17
65985;HTU21D;52748;51.112;5.880;2023-05-02T06:36:28;18.49;62.04
65985;HTU21D;52748;51.112;5.880;2023-05-02T06:38:54;18.50;61.91
65985;HTU21D;52748;51.112;5.880;2023-05-02T06:41:20;18.52;61.82
65985;HTU21D;52748;51.112;5.880;2023-05-02T06:43:46;18.49;61.86
65985;HTU21D;52748;51.112;5.880;2023-05-02T06:46:12;18.47;62.03
65985;HTU21D;52748;51.112;5.880;2023-05-02T06:48:38;18.46;62.14
65985;HTU21D;52748;51.112;5.880;2023-05-02T06:51:03;18.44;62.22
65985;HTU21D;52748;51.112;5.880;2023-05-02T06:53:30;18.46;62.21
65985;HTU21D;52748;51.112;5.880;2023-05-02T06:55:56;18.43;62.14
65985;HTU21D;52748;51.112;5.880;2023-05-02T06:58:22;18.42;62.20
65985;HTU21D;52748;51.112;5.880;2023-05-02T07:00:48;18.44;62.26
65985;HTU21D;52748;51.112;5.880;2023-05-02T07:03:14;18.47;62.10
65985;HTU21D;52748;51.112;5.880;2023-05-02T07:05:40;18.44;62.15
65985;HTU21D;52748;51.112;5.880;2023-05-02T07:08:06;18.44;62.27
65985;HTU21D;52748;51.112;5.880;2023-05-02T07:10:32;18.43;62.28
65985;HTU21D;52748;51.112;5.880;2023-05-02T07:12:58;18.42;62.32
65985;HTU21D;52748;51.112;5.880;2023-05-02T07:15:23;18.42;62.27
65985;HTU21D;52748;51.112;5.880;2023-05-02T07:17:49;18.41;62.29
65985;HTU21D;52748;51.112;5.880;2023-05-02T07:20:15;18.41;62.28
65985;HTU21D;52748;51.112;5.880;2023-05-02T07:22:42;18.46;62.04
65985;HTU21D;52748;51.112;5.880;2023-05-02T07:25:08;18.44;62.05
65985;HTU21D;52748;51.112;5.880;2023-05-02T07:27:34;18.43;62.10
65985;HTU21D;52748;51.112;5.880;2023-05-02T07:29:59;18.43;62.21
65985;HTU21D;52748;51.112;5.880;2023-05-02T07:32:26;18.41;62.29
65985;HTU21D;52748;51.112;5.880;2023-05-02T07:34:52;18.41;62.29
65985;HTU21D;52748;51.112;5.880;2023-05-02T07:37:22;18.41;62.34
65985;HTU21D;52748;51.112;5.880;2023-05-02T07:39:48;18.41;62.29
65985;HTU21D;52748;51.112;5.880;2023-05-02T07:42:13;18.41;62.26
65985;HTU21D;52748;51.112;5.880;2023-05-02T07:44:39;18.41;62.17
65985;HTU21D;52748;51.112;5.880;2023-05-02T07:47:07;18.41;62.24
65985;HTU21D;52748;51.112;5.880;2023-05-02T07:49:33;18.40;62.29
65985;HTU21D;52748;51.112;5.880;2023-05-02T07:51:59;18.44;62.24
65985;HTU21D;52748;51.112;5.880;2023-05-02T07:54:25;18.46;62.05
65985;HTU21D;52748;51.112;5.880;2023-05-02T07:56:51;18.47;62.00
65985;HTU21D;52748;51.112;5.880;2023-05-02T07:59:16;18.43;62.10
65985;HTU21D;52748;51.112;5.880;2023-05-02T08:01:43;18.43;62.21
65985;HTU21D;52748;51.112;5.880;2023-05-02T08:04:09;18.42;62.24
65985;HTU21D;52748;51.112;5.880;2023-05-02T08:06:36;18.42;62.15
65985;HTU21D;52748;51.112;5.880;2023-05-02T08:09:02;18.42;62.15
65985;HTU21D;52748;51.112;5.880;2023-05-02T08:11:28;18.41;62.13
65985;HTU21D;52748;51.112;5.880;2023-05-02T08:13:54;18.41;62.13
65985;HTU21D;52748;51.112;5.880;2023-05-02T08:16:20;18.44;62.07
65985;HTU21D;52748;51.112;5.880;2023-05-02T08:18:46;18.48;61.86
65985;HTU21D;52748;51.112;5.880;2023-05-02T08:21:12;18.43;61.79
65985;HTU21D;52748;51.112;5.880;2023-05-02T08:23:40;18.43;61.89
65985;HTU21D;52748;51.112;5.880;2023-05-02T08:26:07;18.42;61.93
65985;HTU21D;52748;51.112;5.880;2023-05-02T08:28:35;18.42;61.89
65985;HTU21D;52748;51.112;5.880;2023-05-02T08:31:01;18.42;61.85
65985;HTU21D;52748;51.112;5.880;2023-05-02T08:33:27;18.43;61.81
65985;HTU21D;52748;51.112;5.880;2023-05-02T08:35:53;18.46;61.61
65985;HTU21D;52748;51.112;5.880;2023-05-02T08:38:18;18.48;61.44
65985;HTU21D;52748;51.112;5.880;2023-05-02T08:40:44;18.49;61.28
65985;HTU21D;52748;51.112;5.880;2023-05-02T08:43:15;18.46;61.38
65985;HTU21D;52748;51.112;5.880;2023-05-02T08:45:43;18.46;61.46
65985;HTU21D;52748;51.112;5.880;2023-05-02T08:48:12;18.48;61.33
65985;HTU21D;52748;51.112;5.880;2023-05-02T08:50:43;18.51;61.25
65985;HTU21D;52748;51.112;5.880;2023-05-02T08:53:11;18.50;61.12
65985;HTU21D;52748;51.112;5.880;2023-05-02T08:55:40;18.47;61.31
65985;HTU21D;52748;51.112;5.880;2023-05-02T08:58:08;18.46;61.47
65985;HTU21D;52748;51.112;5.880;2023-05-02T09:00:41;18.43;61.54
65985;HTU21D;52748;51.112;5.880;2023-05-02T09:03:30;18.42;61.58
65985;HTU21D;52748;51.112;5.880;2023-05-02T09:06:14;18.46;61.47
65985;HTU21D;52748;51.112;5.880;2023-05-02T09:08:42;18.42;61.49
65985;HTU21D;52748;51.112;5.880;2023-05-02T09:11:09;18.43;61.47
65985;HTU21D;52748;51.112;5.880;2023-05-02T09:13:40;18.42;61.52
65985;HTU21D;52748;51.112;5.880;2023-05-02T09:16:10;18.41;61.54
65985;HTU21D;52748;51.112;5.880;2023-05-02T09:18:41;18.44;61.39
65985;HTU21D;52748;51.112;5.880;2023-05-02T09:21:13;18.48;61.25
65985;HTU21D;52748;51.112;5.880;2023-05-02T09:23:44;18.48;61.14
65985;HTU21D;52748;51.112;5.880;2023-05-02T09:26:24;18.44;61.29
65985;HTU21D;52748;51.112;5.880;2023-05-02T09:29:01;18.43;61.42
65985;HTU21D;52748;51.112;5.880;2023-05-02T09:31:32;18.42;61.58
65985;HTU21D;52748;51.112;5.880;2023-05-02T09:34:15;18.41;61.59
65985;HTU21D;52748;51.112;5.880;2023-05-02T09:36:44;18.41;61.64
65985;HTU21D;52748;51.112;5.880;2023-05-02T09:39:12;18.44;61.37
65985;HTU21D;52748;51.112;5.880;2023-05-02T09:41:45;18.47;61.19
65985;HTU21D;52748;51.112;5.880;2023-05-02T09:44:16;18.48;61.06
65985;HTU21D;52748;51.112;5.880;2023-05-02T09:46:54;18.49;60.98
65985;HTU21D;52748;51.112;5.880;2023-05-02T09:49:42;18.47;61.03
65985;HTU21D;52748;51.112;5.880;2023-05-02T09:52:11;18.44;61.21
65985;HTU21D;52748;51.112;5.880;2023-05-02T09:54:37;18.43;61.32
65985;HTU21D;52748;51.112;5.880;2023-05-02T09:57:03;18.42;61.41
65985;HTU21D;52748;51.112;5.880;2023-05-02T09:59:31;18.40;61.42
65985;HTU21D;52748;51.112;5.880;2023-05-02T10:02:02;18.40;61.44
65985;HTU21D;52748;51.112;5.880;2023-05-02T10:04:31;18.40;61.53
65985;HTU21D;52748;51.112;5.880;2023-05-02T10:06:57;18.39;61.55
65985;HTU21D;52748;51.112;5.880;2023-05-02T10:09:25;18.38;61.52
65985;HTU21D;52748;51.112;5.880;2023-05-02T10:11:54;18.40;61.46
65985;HTU21D;52748;51.112;5.880;2023-05-02T10:14:22;18.39;61.52
65985;HTU21D;52748;51.112;5.880;2023-05-02T10:17:00;18.38;61.50
65985;HTU21D;52748;51.112;5.880;2023-05-02T10:19:32;18.38;61.51
65985;HTU21D;52748;51.112;5.880;2023-05-02T10:22:01;18.37;61.51
65985;HTU21D;52748;51.112;5.880;2023-05-02T10:24:31;18.40;61.50
65985;HTU21D;52748;51.112;5.880;2023-05-02T10:26:58;18.39;61.35
65985;HTU21D;52748;51.112;5.880;2023-05-02T10:29:28;18.39;61.44
65985;HTU21D;52748;51.112;5.880;2023-05-02T10:31:54;18.39;61.45
65985;HTU21D;52748;51.112;5.880;2023-05-02T10:34:21;18.39;61.42
65985;HTU21D;52748;51.112;5.880;2023-05-02T10:36:48;18.37;61.42
65985;HTU21D;52748;51.112;5.880;2023-05-02T10:39:14;18.39;61.41
65985;HTU21D;52748;51.112;5.880;2023-05-02T10:41:41;18.38;61.38
65985;HTU21D;52748;51.112;5.880;2023-05-02T10:44:08;18.42;61.13
65985;HTU21D;52748;51.112;5.880;2023-05-02T10:46:38;18.46;60.98
65985;HTU21D;52748;51.112;5.880;2023-05-02T10:49:10;18.48;60.86
65985;HTU21D;52748;51.112;5.880;2023-05-02T10:51:38;18.49;60.75
65985;HTU21D;52748;51.112;5.880;2023-05-02T10:57:04;18.43;61.00
65985;HTU21D;52748;51.112;5.880;2023-05-02T10:59:36;18.46;60.91
65985;HTU21D;52748;51.112;5.880;2023-05-02T11:05:03;18.49;60.72
65985;HTU21D;52748;51.112;5.880;2023-05-02T11:07:36;18.49;60.61
65985;HTU21D;52748;51.112;5.880;2023-05-02T11:12:51;18.52;60.41
65985;HTU21D;52748;51.112;5.880;2023-05-02T11:15:52;18.52;60.41
65985;HTU21D;52748;51.112;5.880;2023-05-02T11:18:19;18.49;60.58
65985;HTU21D;52748;51.112;5.880;2023-05-02T11:20:44;18.46;60.73
65985;HTU21D;52748;51.112;5.880;2023-05-02T11:25:54;18.43;60.92
65985;HTU21D;52748;51.112;5.880;2023-05-02T11:30:59;18.39;61.03
65985;HTU21D;52748;51.112;5.880;2023-05-02T11:33:27;18.40;61.09
65985;HTU21D;52748;51.112;5.880;2023-05-02T11:35:53;18.40;61.12
65985;HTU21D;52748;51.112;5.880;2023-05-02T11:38:21;18.39;61.06
65985;HTU21D;52748;51.112;5.880;2023-05-02T11:40:53;18.38;61.00
65985;HTU21D;52748;51.112;5.880;2023-05-02T11:43:19;18.39;60.96
65985;HTU21D;52748;51.112;5.880;2023-05-02T11:45:50;18.39;60.97
65985;HTU21D;52748;51.112;5.880;2023-05-02T11:48:18;18.38;60.96
65985;HTU21D;52748;51.112;5.880;2023-05-02T11:50:45;18.39;60.97
65985;HTU21D;52748;51.112;5.880;2023-05-02T11:53:13;18.38;60.99
65985;HTU21D;52748;51.112;5.880;2023-05-02T11:55:46;18.38;60.98
65985;HTU21D;52748;51.112;5.880;2023-05-02T11:58:18;18.38;61.02
65985;HTU21D;52748;51.112;5.880;2023-05-02T12:00:46;18.39;61.05
65985;HTU21D;52748;51.112;5.880;2023-05-02T12:03:38;18.38;61.07
65985;HTU21D;52748;51.112;5.880;2023-05-02T12:06:13;18.39;61.09
65985;HTU21D;52748;51.112;5.880;2023-05-02T12:08:42;18.38;61.04
65985;HTU21D;52748;51.112;5.880;2023-05-02T12:11:11;18.38;61.02
65985;HTU21D;52748;51.112;5.880;2023-05-02T12:13:44;18.40;60.98
65985;HTU21D;52748;51.112;5.880;2023-05-02T12:16:11;18.43;60.71
65985;HTU21D;52748;51.112;5.880;2023-05-02T12:18:37;18.41;60.73
65985;HTU21D;52748;51.112;5.880;2023-05-02T12:21:04;18.44;60.65
65985;HTU21D;52748;51.112;5.880;2023-05-02T12:23:31;18.43;60.67
65985;HTU21D;52748;51.112;5.880;2023-05-02T12:25:57;18.41;60.76
65985;HTU21D;52748;51.112;5.880;2023-05-02T12:28:23;18.41;60.78
65985;HTU21D;52748;51.112;5.880;2023-05-02T12:30:50;18.40;60.75
65985;HTU21D;52748;51.112;5.880;2023-05-02T12:33:17;18.40;60.75
65985;HTU21D;52748;51.112;5.880;2023-05-02T12:35:43;18.40;60.80
65985;HTU21D;52748;51.112;5.880;2023-05-02T12:38:13;18.40;60.67
65985;HTU21D;52748;51.112;5.880;2023-05-02T12:40:56;18.41;60.71
65985;HTU21D;52748;51.112;5.880;2023-05-02T12:43:24;18.40;60.74
65985;HTU21D;52748;51.112;5.880;2023-05-02T12:46:08;18.39;60.76
65985;HTU21D;52748;51.112;5.880;2023-05-02T12:48:34;18.39;60.71
65985;HTU21D;52748;51.112;5.880;2023-05-02T12:51:00;18.42;60.58
65985;HTU21D;52748;51.112;5.880;2023-05-02T12:53:40;18.46;60.37
65985;HTU21D;52748;51.112;5.880;2023-05-02T12:56:07;18.44;60.31
65985;HTU21D;52748;51.112;5.880;2023-05-02T12:58:43;18.42;60.40
65985;HTU21D;52748;51.112;5.880;2023-05-02T13:01:10;18.41;60.49
65985;HTU21D;52748;51.112;5.880;2023-05-02T13:03:36;18.41;60.49
65985;HTU21D;52748;51.112;5.880;2023-05-02T13:06:02;18.41;60.51
65985;HTU21D;52748;51.112;5.880;2023-05-02T13:08:28;18.41;60.53
65985;HTU21D;52748;51.112;5.880;2023-05-02T13:10:53;18.44;60.31
65985;HTU21D;52748;51.112;5.880;2023-05-02T13:13:19;18.48;60.12
65985;HTU21D;52748;51.112;5.880;2023-05-02T13:15:46;18.49;60.03
65985;HTU21D;52748;51.112;5.880;2023-05-02T13:18:12;18.50;59.94
65985;HTU21D;52748;51.112;5.880;2023-05-02T13:20:37;18.46;60.12
65985;HTU21D;52748;51.112;5.880;2023-05-02T13:23:03;18.44;60.32
65985;HTU21D;52748;51.112;5.880;2023-05-02T13:25:29;18.43;60.46
65985;HTU21D;52748;51.112;5.880;2023-05-02T13:27:55;18.43;60.57
65985;HTU21D;52748;51.112;5.880;2023-05-02T13:30:21;18.41;60.64
65985;HTU21D;52748;51.112;5.880;2023-05-02T13:32:46;18.41;60.46
65985;HTU21D;52748;51.112;5.880;2023-05-02T13:35:13;18.44;60.06
65985;HTU21D;52748;51.112;5.880;2023-05-02T13:37:40;18.42;60.08
65985;HTU21D;52748;51.112;5.880;2023-05-02T13:40:07;18.42;59.93
65985;HTU21D;52748;51.112;5.880;2023-05-02T13:42:33;18.40;59.65
65985;HTU21D;52748;51.112;5.880;2023-05-02T13:44:59;18.39;57.85
65985;HTU21D;52748;51.112;5.880;2023-05-02T13:47:27;18.40;53.74
65985;HTU21D;52748;51.112;5.880;2023-05-02T13:49:53;18.35;51.14
65985;HTU21D;52748;51.112;5.880;2023-05-02T13:52:18;18.32;50.07
65985;HTU21D;52748;51.112;5.880;2023-05-02T13:54:44;18.29;50.14
65985;HTU21D;52748;51.112;5.880;2023-05-02T13:57:10;18.32;51.44
65985;HTU21D;52748;51.112;5.880;2023-05-02T13:59:36;18.34;53.09
65985;HTU21D;52748;51.112;5.880;2023-05-02T14:02:02;18.32;54.43
65985;HTU21D;52748;51.112;5.880;2023-05-02T14:04:28;18.33;55.43
65985;HTU21D;52748;51.112;5.880;2023-05-02T14:06:53;18.30;56.00
65985;HTU21D;52748;51.112;5.880;2023-05-02T14:09:19;18.32;56.29
65985;HTU21D;52748;51.112;5.880;2023-05-02T14:11:45;18.32;56.52
65985;HTU21D;52748;51.112;5.880;2023-05-02T14:14:12;18.32;56.62
65985;HTU21D;52748;51.112;5.880;2023-05-02T14:16:38;18.34;56.67
65985;HTU21D;52748;51.112;5.880;2023-05-02T14:19:04;18.34;56.68
65985;HTU21D;52748;51.112;5.880;2023-05-02T14:21:30;18.34;56.74
65985;HTU21D;52748;51.112;5.880;2023-05-02T14:23:56;18.35;56.79
65985;HTU21D;52748;51.112;5.880;2023-05-02T14:26:22;18.36;56.81
65985;HTU21D;52748;51.112;5.880;2023-05-02T14:28:48;18.36;56.90
65985;HTU21D;52748;51.112;5.880;2023-05-02T14:31:14;18.36;56.93
65985;HTU21D;52748;51.112;5.880;2023-05-02T14:33:40;18.39;56.90
65985;HTU21D;52748;51.112;5.880;2023-05-02T14:36:06;18.42;56.71
65985;HTU21D;52748;51.112;5.880;2023-05-02T14:38:32;18.41;56.73
65985;HTU21D;52748;51.112;5.880;2023-05-02T14:40:57;18.40;56.87
65985;HTU21D;52748;51.112;5.880;2023-05-02T14:43:23;18.43;56.94
65985;HTU21D;52748;51.112;5.880;2023-05-02T14:45:49;18.46;56.95
65985;HTU21D;52748;51.112;5.880;2023-05-02T14:48:15;18.47;56.81
65985;HTU21D;52748;51.112;5.880;2023-05-02T14:50:42;18.43;56.87
65985;HTU21D;52748;51.112;5.880;2023-05-02T14:53:08;18.44;57.05
65985;HTU21D;52748;51.112;5.880;2023-05-02T14:55:38;18.43;57.07
65985;HTU21D;52748;51.112;5.880;2023-05-02T14:58:07;18.46;57.03
65985;HTU21D;52748;51.112;5.880;2023-05-02T15:00:35;18.50;56.97
65985;HTU21D;52748;51.112;5.880;2023-05-02T15:03:04;18.49;57.05
65985;HTU21D;52748;51.112;5.880;2023-05-02T15:05:31;18.46;57.15
65985;HTU21D;52748;51.112;5.880;2023-05-02T15:07:57;18.49;57.21
65985;HTU21D;52748;51.112;5.880;2023-05-02T15:10:23;18.50;57.13
65985;HTU21D;52748;51.112;5.880;2023-05-02T15:12:49;18.53;57.07
65985;HTU21D;52748;51.112;5.880;2023-05-02T15:15:18;18.51;57.15
65985;HTU21D;52748;51.112;5.880;2023-05-02T15:17:44;18.49;57.31
65985;HTU21D;52748;51.112;5.880;2023-05-02T15:20:10;18.47;57.42
65985;HTU21D;52748;51.112;5.880;2023-05-02T15:22:37;18.50;57.43
65985;HTU21D;52748;51.112;5.880;2023-05-02T15:25:03;18.49;57.37
65985;HTU21D;52748;51.112;5.880;2023-05-02T15:27:29;18.47;57.55
65985;HTU21D;52748;51.112;5.880;2023-05-02T15:29:54;18.48;57.71
65985;HTU21D;52748;51.112;5.880;2023-05-02T15:32:20;18.46;57.87
65985;HTU21D;52748;51.112;5.880;2023-05-02T15:34:46;18.49;57.85
65985;HTU21D;52748;51.112;5.880;2023-05-02T15:37:12;18.51;57.75
65985;HTU21D;52748;51.112;5.880;2023-05-02T15:39:38;18.51;57.64
65985;HTU21D;52748;51.112;5.880;2023-05-02T15:42:04;18.49;57.87
65985;HTU21D;52748;51.112;5.880;2023-05-02T15:44:34;18.48;57.98
65985;HTU21D;52748;51.112;5.880;2023-05-02T15:47:03;18.49;58.03
65985;HTU21D;52748;51.112;5.880;2023-05-02T15:49:29;18.49;57.89
65985;HTU21D;52748;51.112;5.880;2023-05-02T15:52:01;18.49;58.03
65985;HTU21D;52748;51.112;5.880;2023-05-02T15:54:28;18.48;58.03